sensor_id;sensor_type;location;lat;lon;timestamp;P1;durP1;ratioP1;P2;durP2;ratioP2
17340;SDS011;8788;49.930;8.660;2024-02-26T00:00:11;1.38;;;0.90;;
17340;SDS011;8788;49.930;8.660;2024-02-26T00:02:39;3.17;;;1.15;;
17340;SDS011;8788;49.930;8.660;2024-02-26T00:05:07;1.13;;;1.00;;
17340;SDS011;8788;49.930;8.660;2024-02-26T00:07:35;1.83;;;1.00;;
17340;SDS011;8788;49.930;8.660;2024-02-26T00:10:04;1.42;;;0.80;;
17340;SDS011;8788;49.930;8.660;2024-02-26T00:12:32;0.80;;;0.80;;
17340;SDS011;8788;49.930;8.660;2024-02-26T00:14:59;1.98;;;0.95;;
17340;SDS011;8788;49.930;8.660;2024-02-26T00:17:26;1.08;;;0.80;;
17340;SDS011;8788;49.930;8.660;2024-02-26T00:19:53;1.55;;;1.10;;
17340;SDS011;8788;49.930;8.660;2024-02-26T00:22:20;0.73;;;0.70;;
17340;SDS011;8788;49.930;8.660;2024-02-26T00:24:49;0.63;;;0.57;;
17340;SDS011;8788;49.930;8.660;2024-02-26T00:27:16;1.05;;;0.90;;
17340;SDS011;8788;49.930;8.660;2024-02-26T00:29:43;1.65;;;0.85;;
17340;SDS011;8788;49.930;8.660;2024-02-26T00:32:10;1.38;;;0.80;;
17340;SDS011;8788;49.930;8.660;2024-02-26T00:34:37;1.92;;;0.90;;
17340;SDS011;8788;49.930;8.660;2024-02-26T00:37:04;1.10;;;0.98;;
17340;SDS011;8788;49.930;8.660;2024-02-26T00:39:32;1.02;;;0.80;;
17340;SDS011;8788;49.930;8.660;2024-02-26T00:42:00;1.50;;;1.00;;
17340;SDS011;8788;49.930;8.660;2024-02-26T00:44:28;2.15;;;0.85;;
17340;SDS011;8788;49.930;8.660;2024-02-26T00:46:55;0.93;;;0.93;;
17340;SDS011;8788;49.930;8.660;2024-02-26T00:49:22;1.50;;;1.05;;
17340;SDS011;8788;49.930;8.660;2024-02-26T00:51:49;1.63;;;0.80;;
17340;SDS011;8788;49.930;8.660;2024-02-26T00:54:16;0.80;;;0.80;;
17340;SDS011;8788;49.930;8.660;2024-02-26T00:56:43;1.08;;;0.93;;
17340;SDS011;8788;49.930;8.660;2024-02-26T00:59:11;1.70;;;1.02;;
17340;SDS011;8788;49.930;8.660;2024-02-26T01:01:38;1.40;;;1.30;;
17340;SDS011;8788;49.930;8.660;2024-02-26T01:04:05;1.40;;;1.00;;
17340;SDS011;8788;49.930;8.660;2024-02-26T01:06:32;1.98;;;1.00;;
17340;SDS011;8788;49.930;8.660;2024-02-26T01:08:59;2.13;;;1.30;;
17340;SDS011;8788;49.930;8.660;2024-02-26T01:11:26;1.20;;;1.10;;
17340;SDS011;8788;49.930;8.660;2024-02-26T01:13:53;1.73;;;1.10;;
17340;SDS011;8788;49.930;8.660;2024-02-26T01:16:23;1.30;;;1.13;;
17340;SDS011;8788;49.930;8.660;2024-02-26T01:18:50;1.95;;;0.95;;
17340;SDS011;8788;49.930;8.660;2024-02-26T01:21:17;0.77;;;0.77;;
17340;SDS011;8788;49.930;8.660;2024-02-26T01:23:44;1.10;;;0.93;;
17340;SDS011;8788;49.930;8.660;2024-02-26T01:26:11;1.15;;;0.98;;
17340;SDS011;8788;49.930;8.660;2024-02-26T01:28:38;1.30;;;0.98;;
17340;SDS011;8788;49.930;8.660;2024-02-26T01:31:05;1.83;;;0.75;;
17340;SDS011;8788;49.930;8.660;2024-02-26T01:33:35;2.13;;;1.10;;
17340;SDS011;8788;49.930;8.660;2024-02-26T01:36:03;1.40;;;0.90;;
17340;SDS011;8788;49.930;8.660;2024-02-26T01:38:30;0.98;;;0.98;;
17340;SDS011;8788;49.930;8.660;2024-02-26T01:40:57;1.65;;;1.17;;
17340;SDS011;8788;49.930;8.660;2024-02-26T01:43:24;1.05;;;0.80;;
17340;SDS011;8788;49.930;8.660;2024-02-26T01:45:51;1.52;;;1.00;;
17340;SDS011;8788;49.930;8.660;2024-02-26T01:48:18;2.80;;;1.20;;
17340;SDS011;8788;49.930;8.660;2024-02-26T01:50:47;0.90;;;0.90;;
17340;SDS011;8788;49.930;8.660;2024-02-26T01:53:14;3.33;;;1.17;;
17340;SDS011;8788;49.930;8.660;2024-02-26T01:55:42;2.60;;;1.23;;
17340;SDS011;8788;49.930;8.660;2024-02-26T01:58:09;1.80;;;1.05;;
17340;SDS011;8788;49.930;8.660;2024-02-26T02:00:37;1.35;;;1.00;;
17340;SDS011;8788;49.930;8.660;2024-02-26T02:03:05;1.15;;;0.93;;
17340;SDS011;8788;49.930;8.660;2024-02-26T02:05:32;1.92;;;1.10;;
17340;SDS011;8788;49.930;8.660;2024-02-26T02:08:05;1.42;;;1.00;;
17340;SDS011;8788;49.930;8.660;2024-02-26T02:10:33;1.20;;;1.10;;
17340;SDS011;8788;49.930;8.660;2024-02-26T02:13:00;1.10;;;1.00;;
17340;SDS011;8788;49.930;8.660;2024-02-26T02:15:27;1.30;;;1.00;;
17340;SDS011;8788;49.930;8.660;2024-02-26T02:17:55;2.22;;;1.23;;
17340;SDS011;8788;49.930;8.660;2024-02-26T02:20:26;1.08;;;0.98;;
17340;SDS011;8788;49.930;8.660;2024-02-26T02:22:57;2.53;;;1.40;;
17340;SDS011;8788;49.930;8.660;2024-02-26T02:25:24;1.38;;;1.27;;
17340;SDS011;8788;49.930;8.660;2024-02-26T02:27:52;1.40;;;1.10;;
17340;SDS011;8788;49.930;8.660;2024-02-26T02:30:20;2.10;;;1.17;;
17340;SDS011;8788;49.930;8.660;2024-02-26T02:32:50;1.65;;;1.10;;
17340;SDS011;8788;49.930;8.660;2024-02-26T02:35:18;2.92;;;1.30;;
17340;SDS011;8788;49.930;8.660;2024-02-26T02:37:46;1.70;;;1.10;;
17340;SDS011;8788;49.930;8.660;2024-02-26T02:40:13;1.85;;;1.02;;
17340;SDS011;8788;49.930;8.660;2024-02-26T02:42:40;1.23;;;1.10;;
17340;SDS011;8788;49.930;8.660;2024-02-26T02:45:08;0.93;;;0.90;;
17340;SDS011;8788;49.930;8.660;2024-02-26T02:47:36;1.42;;;1.05;;
17340;SDS011;8788;49.930;8.660;2024-02-26T02:50:03;1.48;;;1.10;;
17340;SDS011;8788;49.930;8.660;2024-02-26T02:52:31;1.10;;;1.00;;
17340;SDS011;8788;49.930;8.660;2024-02-26T02:55:00;1.88;;;1.17;;
17340;SDS011;8788;49.930;8.660;2024-02-26T02:57:27;1.35;;;1.02;;
17340;SDS011;8788;49.930;8.660;2024-02-26T02:59:54;1.10;;;0.77;;
17340;SDS011;8788;49.930;8.660;2024-02-26T03:02:22;1.60;;;1.50;;
17340;SDS011;8788;49.930;8.660;2024-02-26T03:04:50;1.27;;;1.15;;
17340;SDS011;8788;49.930;8.660;2024-02-26T03:07:17;1.63;;;1.30;;
17340;SDS011;8788;49.930;8.660;2024-02-26T03:09:44;1.10;;;1.00;;
17340;SDS011;8788;49.930;8.660;2024-02-26T03:12:12;2.35;;;1.35;;
17340;SDS011;8788;49.930;8.660;2024-02-26T03:14:39;1.30;;;1.20;;
17340;SDS011;8788;49.930;8.660;2024-02-26T03:17:06;1.35;;;1.00;;
17340;SDS011;8788;49.930;8.660;2024-02-26T03:19:34;1.67;;;1.45;;
17340;SDS011;8788;49.930;8.660;2024-02-26T03:22:01;3.17;;;1.20;;
17340;SDS011;8788;49.930;8.660;2024-02-26T03:24:28;3.03;;;1.10;;
17340;SDS011;8788;49.930;8.660;2024-02-26T03:26:55;2.00;;;1.23;;
17340;SDS011;8788;49.930;8.660;2024-02-26T03:29:24;3.80;;;1.40;;
17340;SDS011;8788;49.930;8.660;2024-02-26T03:31:51;1.60;;;1.08;;
17340;SDS011;8788;49.930;8.660;2024-02-26T03:34:18;1.38;;;1.23;;
17340;SDS011;8788;49.930;8.660;2024-02-26T03:36:45;1.10;;;0.93;;
17340;SDS011;8788;49.930;8.660;2024-02-26T03:39:12;2.55;;;1.02;;
17340;SDS011;8788;49.930;8.660;2024-02-26T03:41:39;1.48;;;1.35;;
17340;SDS011;8788;49.930;8.660;2024-02-26T03:44:06;1.27;;;0.93;;
17340;SDS011;8788;49.930;8.660;2024-02-26T03:46:35;1.25;;;1.17;;
17340;SDS011;8788;49.930;8.660;2024-02-26T03:49:02;1.40;;;0.93;;
17340;SDS011;8788;49.930;8.660;2024-02-26T03:51:29;2.05;;;1.13;;
17340;SDS011;8788;49.930;8.660;2024-02-26T03:53:56;1.42;;;1.10;;
17340;SDS011;8788;49.930;8.660;2024-02-26T03:56:24;1.27;;;1.10;;
17340;SDS011;8788;49.930;8.660;2024-02-26T03:58:51;1.50;;;1.40;;
17340;SDS011;8788;49.930;8.660;2024-02-26T04:01:19;2.65;;;2.08;;
17340;SDS011;8788;49.930;8.660;2024-02-26T04:03:47;1.67;;;1.23;;
17340;SDS011;8788;49.930;8.660;2024-02-26T04:06:14;2.03;;;1.20;;
17340;SDS011;8788;49.930;8.660;2024-02-26T04:08:43;1.65;;;1.23;;
17340;SDS011;8788;49.930;8.660;2024-02-26T04:11:10;2.42;;;1.33;;
17340;SDS011;8788;49.930;8.660;2024-02-26T04:13:37;2.33;;;1.10;;
17340;SDS011;8788;49.930;8.660;2024-02-26T04:16:03;1.52;;;1.27;;
17340;SDS011;8788;49.930;8.660;2024-02-26T04:18:31;1.13;;;1.00;;
17340;SDS011;8788;49.930;8.660;2024-02-26T04:20:59;2.08;;;1.25;;
17340;SDS011;8788;49.930;8.660;2024-02-26T04:23:26;1.40;;;1.30;;
17340;SDS011;8788;49.930;8.660;2024-02-26T04:25:54;1.58;;;1.30;;
17340;SDS011;8788;49.930;8.660;2024-02-26T04:28:21;4.40;;;1.50;;
17340;SDS011;8788;49.930;8.660;2024-02-26T04:30:50;1.63;;;1.23;;
17340;SDS011;8788;49.930;8.660;2024-02-26T04:33:17;1.63;;;1.33;;
17340;SDS011;8788;49.930;8.660;2024-02-26T04:35:44;1.20;;;1.10;;
17340;SDS011;8788;49.930;8.660;2024-02-26T04:38:13;2.35;;;0.80;;
17340;SDS011;8788;49.930;8.660;2024-02-26T04:40:40;1.15;;;1.02;;
17340;SDS011;8788;49.930;8.660;2024-02-26T04:43:07;1.40;;;1.30;;
17340;SDS011;8788;49.930;8.660;2024-02-26T04:45:34;1.60;;;1.40;;
17340;SDS011;8788;49.930;8.660;2024-02-26T04:48:01;1.58;;;1.17;;
17340;SDS011;8788;49.930;8.660;2024-02-26T04:50:29;1.50;;;1.40;;
17340;SDS011;8788;49.930;8.660;2024-02-26T04:52:56;1.52;;;1.33;;
17340;SDS011;8788;49.930;8.660;2024-02-26T04:55:24;3.45;;;1.52;;
17340;SDS011;8788;49.930;8.660;2024-02-26T04:57:51;2.47;;;1.63;;
17340;SDS011;8788;49.930;8.660;2024-02-26T05:00:18;1.73;;;1.63;;
17340;SDS011;8788;49.930;8.660;2024-02-26T05:02:45;4.47;;;1.80;;
17340;SDS011;8788;49.930;8.660;2024-02-26T05:05:12;2.22;;;1.60;;
17340;SDS011;8788;49.930;8.660;2024-02-26T05:07:40;2.83;;;1.73;;
17340;SDS011;8788;49.930;8.660;2024-02-26T05:10:08;2.65;;;1.70;;
17340;SDS011;8788;49.930;8.660;2024-02-26T05:12:37;2.40;;;2.20;;
17340;SDS011;8788;49.930;8.660;2024-02-26T05:15:06;2.60;;;2.13;;
17340;SDS011;8788;49.930;8.660;2024-02-26T05:17:33;2.60;;;2.08;;
17340;SDS011;8788;49.930;8.660;2024-02-26T05:20:00;3.47;;;1.92;;
17340;SDS011;8788;49.930;8.660;2024-02-26T05:22:28;2.78;;;2.50;;
17340;SDS011;8788;49.930;8.660;2024-02-26T05:24:55;5.18;;;2.10;;
17340;SDS011;8788;49.930;8.660;2024-02-26T05:27:22;2.28;;;2.05;;
17340;SDS011;8788;49.930;8.660;2024-02-26T05:29:51;2.35;;;2.15;;
17340;SDS011;8788;49.930;8.660;2024-02-26T05:32:19;3.40;;;3.05;;
17340;SDS011;8788;49.930;8.660;2024-02-26T05:34:46;4.28;;;3.03;;
17340;SDS011;8788;49.930;8.660;2024-02-26T05:37:13;3.10;;;2.70;;
17340;SDS011;8788;49.930;8.660;2024-02-26T05:39:40;3.00;;;2.70;;
17340;SDS011;8788;49.930;8.660;2024-02-26T05:42:07;5.45;;;2.80;;
17340;SDS011;8788;49.930;8.660;2024-02-26T05:44:34;3.97;;;2.88;;
17340;SDS011;8788;49.930;8.660;2024-02-26T05:47:04;6.03;;;3.17;;
17340;SDS011;8788;49.930;8.660;2024-02-26T05:49:31;11.95;;;3.13;;
17340;SDS011;8788;49.930;8.660;2024-02-26T05:51:58;3.58;;;2.78;;
17340;SDS011;8788;49.930;8.660;2024-02-26T05:54:25;5.55;;;3.25;;
17340;SDS011;8788;49.930;8.660;2024-02-26T05:56:52;5.00;;;3.30;;
17340;SDS011;8788;49.930;8.660;2024-02-26T05:59:19;5.72;;;3.17;;
17340;SDS011;8788;49.930;8.660;2024-02-26T06:01:47;3.67;;;3.28;;
17340;SDS011;8788;49.930;8.660;2024-02-26T06:04:15;3.40;;;2.72;;
17340;SDS011;8788;49.930;8.660;2024-02-26T06:06:43;5.70;;;3.22;;
17340;SDS011;8788;49.930;8.660;2024-02-26T06:09:10;3.53;;;3.22;;
17340;SDS011;8788;49.930;8.660;2024-02-26T06:11:37;4.68;;;2.92;;
17340;SDS011;8788;49.930;8.660;2024-02-26T06:14:05;5.57;;;2.88;;
17340;SDS011;8788;49.930;8.660;2024-02-26T06:16:32;2.92;;;2.60;;
17340;SDS011;8788;49.930;8.660;2024-02-26T06:19:00;5.20;;;2.90;;
17340;SDS011;8788;49.930;8.660;2024-02-26T06:21:29;4.40;;;3.33;;
17340;SDS011;8788;49.930;8.660;2024-02-26T06:23:56;7.18;;;3.60;;
17340;SDS011;8788;49.930;8.660;2024-02-26T06:26:24;5.30;;;3.35;;
17340;SDS011;8788;49.930;8.660;2024-02-26T06:28:53;5.03;;;2.70;;
17340;SDS011;8788;49.930;8.660;2024-02-26T06:31:21;5.93;;;3.63;;
17340;SDS011;8788;49.930;8.660;2024-02-26T06:33:48;4.43;;;3.33;;
17340;SDS011;8788;49.930;8.660;2024-02-26T06:36:15;3.40;;;3.08;;
17340;SDS011;8788;49.930;8.660;2024-02-26T06:38:44;6.03;;;3.95;;
17340;SDS011;8788;49.930;8.660;2024-02-26T06:41:11;4.55;;;3.42;;
17340;SDS011;8788;49.930;8.660;2024-02-26T06:43:38;5.13;;;3.45;;
17340;SDS011;8788;49.930;8.660;2024-02-26T06:46:05;5.03;;;3.28;;
17340;SDS011;8788;49.930;8.660;2024-02-26T06:48:33;3.90;;;3.03;;
17340;SDS011;8788;49.930;8.660;2024-02-26T06:51:02;3.75;;;3.03;;
17340;SDS011;8788;49.930;8.660;2024-02-26T06:53:29;5.45;;;3.85;;
17340;SDS011;8788;49.930;8.660;2024-02-26T06:55:57;4.85;;;3.50;;
17340;SDS011;8788;49.930;8.660;2024-02-26T06:58:24;5.15;;;3.78;;
17340;SDS011;8788;49.930;8.660;2024-02-26T07:00:51;5.30;;;3.70;;
17340;SDS011;8788;49.930;8.660;2024-02-26T07:03:18;5.70;;;3.78;;
17340;SDS011;8788;49.930;8.660;2024-02-26T07:05:47;5.13;;;3.83;;
17340;SDS011;8788;49.930;8.660;2024-02-26T07:08:14;5.72;;;3.53;;
17340;SDS011;8788;49.930;8.660;2024-02-26T07:10:41;6.55;;;3.33;;
17340;SDS011;8788;49.930;8.660;2024-02-26T07:13:10;7.72;;;4.03;;
17340;SDS011;8788;49.930;8.660;2024-02-26T07:15:37;5.65;;;3.88;;
17340;SDS011;8788;49.930;8.660;2024-02-26T07:18:04;5.57;;;3.55;;
17340;SDS011;8788;49.930;8.660;2024-02-26T07:20:31;4.55;;;3.53;;
17340;SDS011;8788;49.930;8.660;2024-02-26T07:22:59;5.40;;;3.75;;
17340;SDS011;8788;49.930;8.660;2024-02-26T07:25:26;5.38;;;3.97;;
17340;SDS011;8788;49.930;8.660;2024-02-26T07:27:53;4.72;;;3.90;;
17340;SDS011;8788;49.930;8.660;2024-02-26T07:30:21;5.13;;;3.90;;
17340;SDS011;8788;49.930;8.660;2024-02-26T07:32:49;4.82;;;3.95;;
17340;SDS011;8788;49.930;8.660;2024-02-26T07:35:16;4.22;;;3.45;;
17340;SDS011;8788;49.930;8.660;2024-02-26T07:37:43;4.43;;;3.92;;
17340;SDS011;8788;49.930;8.660;2024-02-26T07:40:11;6.70;;;3.72;;
17340;SDS011;8788;49.930;8.660;2024-02-26T07:42:38;3.97;;;3.45;;
17340;SDS011;8788;49.930;8.660;2024-02-26T07:45:05;4.07;;;3.47;;
17340;SDS011;8788;49.930;8.660;2024-02-26T07:47:34;4.18;;;3.63;;
17340;SDS011;8788;49.930;8.660;2024-02-26T07:50:03;3.72;;;3.10;;
17340;SDS011;8788;49.930;8.660;2024-02-26T07:52:30;4.95;;;3.88;;
17340;SDS011;8788;49.930;8.660;2024-02-26T07:54:57;4.45;;;3.42;;
17340;SDS011;8788;49.930;8.660;2024-02-26T07:57:24;4.50;;;4.05;;
17340;SDS011;8788;49.930;8.660;2024-02-26T07:59:51;5.15;;;4.07;;
17340;SDS011;8788;49.930;8.660;2024-02-26T08:02:18;5.85;;;3.85;;
17340;SDS011;8788;49.930;8.660;2024-02-26T08:04:48;4.68;;;3.60;;
17340;SDS011;8788;49.930;8.660;2024-02-26T08:07:15;5.38;;;4.20;;
17340;SDS011;8788;49.930;8.660;2024-02-26T08:09:42;4.35;;;3.30;;
17340;SDS011;8788;49.930;8.660;2024-02-26T08:12:09;6.22;;;3.72;;
17340;SDS011;8788;49.930;8.660;2024-02-26T08:14:36;4.43;;;3.60;;
17340;SDS011;8788;49.930;8.660;2024-02-26T08:17:04;5.22;;;3.80;;
17340;SDS011;8788;49.930;8.660;2024-02-26T08:19:31;4.93;;;3.78;;
17340;SDS011;8788;49.930;8.660;2024-02-26T08:21:59;3.58;;;3.22;;
17340;SDS011;8788;49.930;8.660;2024-02-26T08:24:26;4.55;;;3.72;;
17340;SDS011;8788;49.930;8.660;2024-02-26T08:26:53;4.93;;;3.97;;
17340;SDS011;8788;49.930;8.660;2024-02-26T08:29:20;4.68;;;4.10;;
17340;SDS011;8788;49.930;8.660;2024-02-26T08:31:47;5.07;;;3.60;;
17340;SDS011;8788;49.930;8.660;2024-02-26T08:34:15;7.93;;;4.00;;
17340;SDS011;8788;49.930;8.660;2024-02-26T08:36:42;5.30;;;4.03;;
17340;SDS011;8788;49.930;8.660;2024-02-26T08:39:11;7.43;;;3.95;;
17340;SDS011;8788;49.930;8.660;2024-02-26T08:41:39;6.97;;;4.68;;
17340;SDS011;8788;49.930;8.660;2024-02-26T08:44:06;6.13;;;4.53;;
17340;SDS011;8788;49.930;8.660;2024-02-26T08:46:33;9.00;;;4.55;;
17340;SDS011;8788;49.930;8.660;2024-02-26T08:49:00;5.10;;;4.18;;
17340;SDS011;8788;49.930;8.660;2024-02-26T08:51:27;5.32;;;3.90;;
17340;SDS011;8788;49.930;8.660;2024-02-26T08:53:54;6.32;;;4.53;;
17340;SDS011;8788;49.930;8.660;2024-02-26T08:56:22;6.18;;;4.38;;
17340;SDS011;8788;49.930;8.660;2024-02-26T08:58:49;5.93;;;4.10;;
17340;SDS011;8788;49.930;8.660;2024-02-26T09:01:18;7.43;;;3.33;;
17340;SDS011;8788;49.930;8.660;2024-02-26T09:03:46;7.43;;;4.00;;
17340;SDS011;8788;49.930;8.660;2024-02-26T09:06:14;4.43;;;3.72;;
17340;SDS011;8788;49.930;8.660;2024-02-26T09:08:41;5.05;;;3.80;;
17340;SDS011;8788;49.930;8.660;2024-02-26T09:11:08;3.55;;;3.08;;
17340;SDS011;8788;49.930;8.660;2024-02-26T09:13:37;6.03;;;4.30;;
17340;SDS011;8788;49.930;8.660;2024-02-26T09:16:04;6.50;;;3.70;;
17340;SDS011;8788;49.930;8.660;2024-02-26T09:18:32;4.40;;;3.47;;
17340;SDS011;8788;49.930;8.660;2024-02-26T09:20:59;4.22;;;3.83;;
17340;SDS011;8788;49.930;8.660;2024-02-26T09:23:26;4.45;;;3.53;;
17340;SDS011;8788;49.930;8.660;2024-02-26T09:25:53;5.63;;;4.20;;
17340;SDS011;8788;49.930;8.660;2024-02-26T09:28:20;5.88;;;4.20;;
17340;SDS011;8788;49.930;8.660;2024-02-26T09:30:48;5.55;;;4.10;;
17340;SDS011;8788;49.930;8.660;2024-02-26T09:33:16;5.43;;;3.92;;
17340;SDS011;8788;49.930;8.660;2024-02-26T09:35:43;4.30;;;3.90;;
17340;SDS011;8788;49.930;8.660;2024-02-26T09:38:10;6.15;;;3.60;;
17340;SDS011;8788;49.930;8.660;2024-02-26T09:40:38;6.03;;;3.67;;
17340;SDS011;8788;49.930;8.660;2024-02-26T09:43:06;3.60;;;3.30;;
17340;SDS011;8788;49.930;8.660;2024-02-26T09:45:36;4.03;;;3.30;;
17340;SDS011;8788;49.930;8.660;2024-02-26T09:48:05;4.05;;;3.65;;
17340;SDS011;8788;49.930;8.660;2024-02-26T09:50:35;6.95;;;3.35;;
17340;SDS011;8788;49.930;8.660;2024-02-26T09:53:02;5.65;;;3.85;;
17340;SDS011;8788;49.930;8.660;2024-02-26T09:55:33;6.28;;;4.15;;
17340;SDS011;8788;49.930;8.660;2024-02-26T09:58:00;4.28;;;3.47;;
17340;SDS011;8788;49.930;8.660;2024-02-26T10:00:27;3.85;;;3.42;;
17340;SDS011;8788;49.930;8.660;2024-02-26T10:02:59;5.05;;;3.85;;
17340;SDS011;8788;49.930;8.660;2024-02-26T10:05:31;5.22;;;4.32;;
17340;SDS011;8788;49.930;8.660;2024-02-26T10:08:00;4.97;;;4.15;;
17340;SDS011;8788;49.930;8.660;2024-02-26T10:10:28;4.70;;;3.58;;
17340;SDS011;8788;49.930;8.660;2024-02-26T10:12:56;4.13;;;3.72;;
17340;SDS011;8788;49.930;8.660;2024-02-26T10:15:24;6.10;;;3.70;;
17340;SDS011;8788;49.930;8.660;2024-02-26T10:17:52;5.15;;;3.92;;
17340;SDS011;8788;49.930;8.660;2024-02-26T10:20:19;5.80;;;4.10;;
17340;SDS011;8788;49.930;8.660;2024-02-26T10:22:50;4.60;;;4.10;;
17340;SDS011;8788;49.930;8.660;2024-02-26T10:25:17;5.78;;;3.83;;
17340;SDS011;8788;49.930;8.660;2024-02-26T10:27:45;5.15;;;3.83;;
17340;SDS011;8788;49.930;8.660;2024-02-26T10:30:15;5.25;;;3.47;;
17340;SDS011;8788;49.930;8.660;2024-02-26T10:32:44;4.63;;;3.85;;
17340;SDS011;8788;49.930;8.660;2024-02-26T10:35:12;3.97;;;3.30;;
17340;SDS011;8788;49.930;8.660;2024-02-26T10:37:39;6.45;;;4.03;;
17340;SDS011;8788;49.930;8.660;2024-02-26T10:40:10;3.65;;;3.35;;
17340;SDS011;8788;49.930;8.660;2024-02-26T10:42:37;4.07;;;3.53;;
17340;SDS011;8788;49.930;8.660;2024-02-26T10:45:05;7.10;;;3.90;;
17340;SDS011;8788;49.930;8.660;2024-02-26T10:47:34;4.07;;;3.63;;
17340;SDS011;8788;49.930;8.660;2024-02-26T10:50:01;4.90;;;3.70;;
17340;SDS011;8788;49.930;8.660;2024-02-26T10:52:30;5.38;;;4.15;;
17340;SDS011;8788;49.930;8.660;2024-02-26T10:55:00;4.43;;;4.00;;
17340;SDS011;8788;49.930;8.660;2024-02-26T10:57:31;5.85;;;4.03;;
17340;SDS011;8788;49.930;8.660;2024-02-26T11:00:00;4.32;;;3.88;;
17340;SDS011;8788;49.930;8.660;2024-02-26T11:02:30;4.15;;;3.33;;
17340;SDS011;8788;49.930;8.660;2024-02-26T11:04:59;4.68;;;3.83;;
17340;SDS011;8788;49.930;8.660;2024-02-26T11:07:29;5.30;;;3.65;;
17340;SDS011;8788;49.930;8.660;2024-02-26T11:09:57;3.90;;;3.53;;
17340;SDS011;8788;49.930;8.660;2024-02-26T11:12:27;3.47;;;3.17;;
17340;SDS011;8788;49.930;8.660;2024-02-26T11:14:56;4.95;;;3.97;;
17340;SDS011;8788;49.930;8.660;2024-02-26T11:17:26;4.35;;;3.88;;
17340;SDS011;8788;49.930;8.660;2024-02-26T11:19:56;4.78;;;3.65;;
17340;SDS011;8788;49.930;8.660;2024-02-26T11:22:24;4.18;;;3.40;;
17340;SDS011;8788;49.930;8.660;2024-02-26T11:24:52;3.30;;;3.00;;
17340;SDS011;8788;49.930;8.660;2024-02-26T11:27:23;4.72;;;3.60;;
17340;SDS011;8788;49.930;8.660;2024-02-26T11:29:56;4.60;;;3.42;;
17340;SDS011;8788;49.930;8.660;2024-02-26T11:32:26;3.85;;;3.45;;
17340;SDS011;8788;49.930;8.660;2024-02-26T11:34:55;6.20;;;3.60;;
17340;SDS011;8788;49.930;8.660;2024-02-26T11:37:23;4.18;;;3.65;;
17340;SDS011;8788;49.930;8.660;2024-02-26T11:39:51;4.68;;;4.10;;
17340;SDS011;8788;49.930;8.660;2024-02-26T11:42:22;5.32;;;4.20;;
17340;SDS011;8788;49.930;8.660;2024-02-26T11:44:50;4.63;;;3.78;;
17340;SDS011;8788;49.930;8.660;2024-02-26T11:47:19;6.55;;;4.15;;
17340;SDS011;8788;49.930;8.660;2024-02-26T11:49:47;5.40;;;4.38;;
17340;SDS011;8788;49.930;8.660;2024-02-26T11:52:15;5.38;;;4.28;;
17340;SDS011;8788;49.930;8.660;2024-02-26T11:54:45;6.03;;;4.03;;
17340;SDS011;8788;49.930;8.660;2024-02-26T11:57:23;5.65;;;4.22;;
17340;SDS011;8788;49.930;8.660;2024-02-26T11:59:51;4.43;;;3.42;;
17340;SDS011;8788;49.930;8.660;2024-02-26T12:05:07;5.18;;;3.60;;
17340;SDS011;8788;49.930;8.660;2024-02-26T12:07:37;4.43;;;3.78;;
17340;SDS011;8788;49.930;8.660;2024-02-26T12:10:15;5.25;;;3.55;;
17340;SDS011;8788;49.930;8.660;2024-02-26T12:12:47;3.92;;;3.40;;
17340;SDS011;8788;49.930;8.660;2024-02-26T12:15:14;3.53;;;3.05;;
17340;SDS011;8788;49.930;8.660;2024-02-26T12:17:44;3.70;;;3.33;;
17340;SDS011;8788;49.930;8.660;2024-02-26T12:20:16;3.65;;;3.25;;
17340;SDS011;8788;49.930;8.660;2024-02-26T12:22:45;3.80;;;3.38;;
17340;SDS011;8788;49.930;8.660;2024-02-26T12:25:13;3.90;;;2.92;;
17340;SDS011;8788;49.930;8.660;2024-02-26T12:27:40;4.55;;;3.90;;
17340;SDS011;8788;49.930;8.660;2024-02-26T12:30:08;3.88;;;3.30;;
17340;SDS011;8788;49.930;8.660;2024-02-26T12:32:36;3.85;;;3.45;;
17340;SDS011;8788;49.930;8.660;2024-02-26T12:35:05;4.05;;;3.00;;
17340;SDS011;8788;49.930;8.660;2024-02-26T12:37:33;4.07;;;3.50;;
17340;SDS011;8788;49.930;8.660;2024-02-26T12:40:03;4.22;;;3.20;;
17340;SDS011;8788;49.930;8.660;2024-02-26T12:42:33;4.40;;;3.30;;
17340;SDS011;8788;49.930;8.660;2024-02-26T12:45:05;4.22;;;3.00;;
17340;SDS011;8788;49.930;8.660;2024-02-26T12:47:37;4.55;;;3.80;;
17340;SDS011;8788;49.930;8.660;2024-02-26T12:50:07;8.05;;;3.60;;
17340;SDS011;8788;49.930;8.660;2024-02-26T12:52:35;4.82;;;3.72;;
17340;SDS011;8788;49.930;8.660;2024-02-26T12:55:05;4.45;;;3.00;;
17340;SDS011;8788;49.930;8.660;2024-02-26T12:57:34;4.75;;;2.90;;
17340;SDS011;8788;49.930;8.660;2024-02-26T13:00:03;4.55;;;3.63;;
17340;SDS011;8788;49.930;8.660;2024-02-26T13:02:34;5.95;;;3.35;;
17340;SDS011;8788;49.930;8.660;2024-02-26T13:05:02;4.63;;;3.17;;
17340;SDS011;8788;49.930;8.660;2024-02-26T13:07:31;4.32;;;3.10;;
17340;SDS011;8788;49.930;8.660;2024-02-26T13:09:59;5.15;;;3.25;;
17340;SDS011;8788;49.930;8.660;2024-02-26T13:12:26;3.83;;;3.03;;
17340;SDS011;8788;49.930;8.660;2024-02-26T13:15:00;3.60;;;3.25;;
17340;SDS011;8788;49.930;8.660;2024-02-26T13:17:27;3.95;;;3.38;;
17340;SDS011;8788;49.930;8.660;2024-02-26T13:19:58;5.28;;;3.70;;
17340;SDS011;8788;49.930;8.660;2024-02-26T13:22:25;4.60;;;3.10;;
17340;SDS011;8788;49.930;8.660;2024-02-26T13:24:56;5.53;;;3.13;;
17340;SDS011;8788;49.930;8.660;2024-02-26T13:27:25;5.45;;;3.50;;
17340;SDS011;8788;49.930;8.660;2024-02-26T13:30:05;5.28;;;3.90;;
17340;SDS011;8788;49.930;8.660;2024-02-26T13:32:36;3.53;;;3.22;;
17340;SDS011;8788;49.930;8.660;2024-02-26T13:35:05;4.55;;;3.05;;
17340;SDS011;8788;49.930;8.660;2024-02-26T13:37:33;4.65;;;4.05;;
17340;SDS011;8788;49.930;8.660;2024-02-26T13:40:02;4.85;;;3.35;;
17340;SDS011;8788;49.930;8.660;2024-02-26T13:42:31;3.08;;;2.67;;
17340;SDS011;8788;49.930;8.660;2024-02-26T13:44:58;3.92;;;3.53;;
17340;SDS011;8788;49.930;8.660;2024-02-26T13:47:25;6.13;;;3.67;;
17340;SDS011;8788;49.930;8.660;2024-02-26T13:49:52;3.20;;;2.92;;
17340;SDS011;8788;49.930;8.660;2024-02-26T13:52:19;3.40;;;2.85;;
17340;SDS011;8788;49.930;8.660;2024-02-26T13:54:46;6.13;;;3.10;;
17340;SDS011;8788;49.930;8.660;2024-02-26T13:57:15;2.97;;;2.70;;
17340;SDS011;8788;49.930;8.660;2024-02-26T13:59:43;6.10;;;3.00;;
17340;SDS011;8788;49.930;8.660;2024-02-26T14:02:10;4.30;;;3.17;;
17340;SDS011;8788;49.930;8.660;2024-02-26T14:04:37;3.25;;;2.90;;
17340;SDS011;8788;49.930;8.660;2024-02-26T14:07:04;3.85;;;2.70;;
17340;SDS011;8788;49.930;8.660;2024-02-26T14:09:31;5.57;;;2.95;;
17340;SDS011;8788;49.930;8.660;2024-02-26T14:11:59;3.33;;;3.00;;
17340;SDS011;8788;49.930;8.660;2024-02-26T14:14:28;3.30;;;3.00;;
17340;SDS011;8788;49.930;8.660;2024-02-26T14:16:57;3.95;;;3.60;;
17340;SDS011;8788;49.930;8.660;2024-02-26T14:19:25;3.00;;;2.70;;
17340;SDS011;8788;49.930;8.660;2024-02-26T14:21:52;3.80;;;2.95;;
17340;SDS011;8788;49.930;8.660;2024-02-26T14:24:19;3.30;;;2.70;;
17340;SDS011;8788;49.930;8.660;2024-02-26T14:26:46;4.53;;;2.75;;
17340;SDS011;8788;49.930;8.660;2024-02-26T14:29:13;5.50;;;2.90;;
17340;SDS011;8788;49.930;8.660;2024-02-26T14:31:43;4.60;;;3.13;;
17340;SDS011;8788;49.930;8.660;2024-02-26T14:34:10;3.63;;;2.78;;
17340;SDS011;8788;49.930;8.660;2024-02-26T14:36:37;4.38;;;2.85;;
17340;SDS011;8788;49.930;8.660;2024-02-26T14:39:04;4.93;;;3.10;;
17340;SDS011;8788;49.930;8.660;2024-02-26T14:41:31;3.47;;;3.17;;
17340;SDS011;8788;49.930;8.660;2024-02-26T14:43:58;3.80;;;2.88;;
17340;SDS011;8788;49.930;8.660;2024-02-26T14:46:25;4.03;;;2.70;;
17340;SDS011;8788;49.930;8.660;2024-02-26T14:48:53;2.90;;;2.42;;
17340;SDS011;8788;49.930;8.660;2024-02-26T14:51:21;3.90;;;2.10;;
17340;SDS011;8788;49.930;8.660;2024-02-26T14:53:48;3.10;;;2.80;;
17340;SDS011;8788;49.930;8.660;2024-02-26T14:56:15;3.78;;;2.60;;
17340;SDS011;8788;49.930;8.660;2024-02-26T14:58:44;3.22;;;2.47;;
17340;SDS011;8788;49.930;8.660;2024-02-26T15:01:11;2.55;;;2.35;;
17340;SDS011;8788;49.930;8.660;2024-02-26T15:03:39;3.53;;;2.47;;
17340;SDS011;8788;49.930;8.660;2024-02-26T15:06:07;2.70;;;2.38;;